NWS Home NWS Lubbock West Texas Mesonet Latest Conditions as of 0809 AM, Sat Jul 26, 2014

Latest   N   C   S   Daily Sum   3hrΔ   24hrΔ   Soil Data 
Site Map   24hr Precip   72hr Precip   Google Plot


Station Time of Last Temp Dew Pt. RH Wind Direction Wind Speed Wind Gust Max Wind Max Temp Min Temp Max RH Min RH Altimeter 1HR Rain Today's Rain Solar Rad
Abernathy 5ENE  08:05 AM 72 59 68% SW810 14 mph 181° @ 0100 AM 75 64 79 41 30.07" 0 0.00 160
Aiken 3WSW  08:06 AM 67 61 79% SW67 14 mph 181° @ 1214 AM 76 61 89 44 30.07" 0 0.00 167
Amarillo 15NNW   08:05 AM 76 57 50% SW911 28 mph 187° @ 0319 AM 83 73 53 32 30.04" 0 0.00 47
Amarillo 7SSE  08:05 AM 75 58 56% SW1618 21 mph 222° @ 0605 AM 77 72 58 39 30.07" 0 0.00 161
Amarillo 9NNE  08:05 AM 76 58 53% SW911 29 mph 202° @ 0613 AM 83 75 54 33 30.04" 0 0.00 54
Amherst 1NE  08:05 AM 72 59 63% SW1014 16 mph 171° @ 1205 AM 79 71 64 33 30.08" 0 0.00 147
Andrews 2E  06:55 AM 73 59 64% S55 26 mph 176° @ 0410 AM 84 73 64 32 30.05" 0 0.00 2
Anton 6SSW  08:05 AM 73 60 67% SW913 18 mph 177° @ 0140 AM 79 69 71 38 30.07" 0 0.00 154
Aspermont 3NE  08:05 AM 80 64 60% S23 20 mph 163° @ 1245 AM 86 74 67 45 30.00" 0 0.00 180
Big Lake 1WNW  08:05 AM 73 67 83% SE69 13 mph 160° @ 0432 AM 80 70 86 55 30.06" 0 0.00 121
Bootleg 11WNW  08:05 AM 72 56 56% SW1416 26 mph 210° @ 0523 AM 76 69 59 39 30.12" 0 0.00 44
Brownfield 2S  08:05 AM 71 60 70% SW69 20 mph 190° @ 0220 AM 79 66 75 32 30.07" 0 0.00 156
Canadian 6E  08:05 AM 75 60 58% SW56 24 mph 192° @ 0240 AM 84 73 63 36 29.95" 0 0.00 50
Caprock Canyons State Park  08:05 AM 79 60 51% SW1823 28 mph 238° @ 0728 AM 81 75 53 40 30.00" 0 0.00 122
Childress 2NNE  08:05 AM 77 63 65% S811 27 mph 176° @ 0210 AM 86 72 73 34 29.98" 0 0.00 180
Clarendon 2WSW  08:05 AM 78 58 51% SW912 18 mph 164° @ 1210 AM 81 71 64 37 30.01" 0 0.00 180
Claude 12SW  08:05 AM 80 57 46% SW1416 24 mph 200° @ 0417 AM 84 77 50 31 30.05" 0 0.00 51
Coyanosa 2N  08:05 AM 76 62 61% SE1113 17 mph 136° @ 0309 AM 86 73 66 39 30.01" 0 0.00 105
Denver City 7WNW  08:05 AM 70 59 70% SW57 22 mph 159° @ 0110 AM 76 66 76 34 30.08" 0 0.00 130
Dimmitt 2NE  08:05 AM 72 57 61% SW1318 22 mph 197° @ 0325 AM 74 69 64 43 30.09" 0 0.00 193
Dora NM 2SW  08:05 AM 70 59 70% S1416 20 mph 197° @ 0610 AM 74 68 71 39 30.11" 0 0.00 91
Dozier 3W  08:05 AM 73 63 71% SE22 15 mph 178° @ 1201 AM 83 68 78 41 29.99" 0 0.00 156
Floydada 2NNE  08:05 AM 72 58 63% SW913 17 mph 164° @ 1215 AM 76 64 76 39 30.05" 0 0.00 155
Fluvanna 3WNW  08:05 AM 75 61 62% S912 21 mph 151° @ 1225 AM 84 71 66 42 30.05" 0 0.00 161
Friona 2NE  08:05 AM 72 57 61% SW1014 20 mph 191° @ 0220 AM 78 69 62 33 30.10" 0 0.00 76
Gail 2ESE  08:05 AM 78 62 59% SW811 15 mph 210° @ 0545 AM 83 73 66 36 30.04" 0 0.00 150
Goodlett 3W  08:05 AM 75 62 67% S68 20 mph 174° @ 0210 AM 82 70 74 38 29.97" 0 0.00 127
Graham 5SSW  08:05 AM 76 60 59% SW69 20 mph 185° @ 0425 AM 82 74 62 28 30.05" 0 0.00 158
Guadalupe Mtns Natl Park  08:05 AM 75 52 45% SW67 24 mph 223° @ 0710 AM 77 67 53 29 30.20" 0 0.00 125
Guthrie 10WSW  08:05 AM 77 62 63% S56 18 mph 161° @ 0120 AM 81 73 69 49 29.99" 0 0.00 162
Hart 3N  08:05 AM 68 59 75% SW56 15 mph 196° @ 0235 AM 76 63 82 38 30.09" 0 0.00 154
Haskell 1NW  08:05 AM 78 63 62% S812 16 mph 171° @ 0245 AM 84 77 63 45 29.98" 0 0.00 169
Hereford 2NW  08:05 AM 73 56 56% SW1317 21 mph 204° @ 0320 AM 78 68 60 34 30.08" 0 0.00 159
Hobbs NM 5NW  08:05 AM 72 60 66% S67 23 mph 166° @ 1258 AM 83 70 68 27 30.11" 0 0.00 134
Jayton 1SSE  08:05 AM 79 63 59% SW79 12 mph 167° @ 0150 AM 83 75 63 45 30.01" 0 0.00 168
Junction 1SSW  08:05 AM 75 68 81% S34 13 mph 156° @ 1201 AM 82 69 92 57 30.05" 0 0.00 125
Knox City 3NW  08:05 AM 80 62 57% S67 20 mph 167° @ 0140 AM 84 76 63 42 29.98" 0 0.00 154
Lake Alan Henry 1NW  08:05 AM 80 63 56% SW811 19 mph 163° @ 1205 AM 86 76 60 41 30.02" 0 0.00 179
Lamesa 2SE  08:05 AM 74 62 70% S57 10 mph 164° @ 1205 AM 78 67 83 45 30.06" 0 0.00 144
Levelland 4S  08:05 AM 72 59 65% SW710 19 mph 162° @ 1250 AM 80 68 66 32 30.07" 0 0.00 97
Lomax 1SSE  08:05 AM 76 64 67% S910 20 mph 173° @ 0613 AM 84 74 69 42 30.04" 0 0.00 171
Lubbock 3WNW TTU  08:05 AM 75 59 59% SW1014 25 mph 179° @ 0120 AM 84 73 61 30 30.07" 0 0.00 154
McLean 1E  08:05 AM 74 59 61% SW610 20 mph 185° @ 0210 AM 79 67 78 44 29.99" 0 0.00 225
Memphis 1NE  08:05 AM 72 63 75% NW12 14 mph 164° @ 1205 AM 85 68 82 36 29.98" 0 0.00 154
Menard 2NW   08:05 AM 74 68 80% SE33 18 mph 175° @ 0258 AM 83 69 89 54 30.05" 0 0.00 72
Mertzon 3NNE  08:05 AM 75 66 74% S1011 16 mph 188° @ 0239 AM 81 72 77 50 30.05" 0 0.00 147
Morton 1ENE  08:05 AM 72 59 66% SW811 20 mph 169° @ 0130 AM 81 70 67 30 30.09" 0 0.00 140
Muleshoe 2SSW  08:05 AM 73 59 63% SW812 20 mph 200° @ 0500 AM 79 69 67 31 30.09" 0 0.00 190
Northfield 1S  08:05 AM 77 62 63% SW23 27 mph 168° @ 1215 AM 84 72 71 42 29.98" 0 0.00 134
O'Donnell 1N  08:05 AM 72 59 65% S57 16 mph 165° @ 0240 AM 82 67 72 33 30.07" 0 0.00 118
Odell 4ENE  08:05 AM 80 65 62% S1315 22 mph 177° @ 0254 AM 86 76 70 38 29.96" 0 0.00 154
Olton 6S  08:05 AM 70 60 72% SW57 14 mph 178° @ 1210 AM 74 65 75 40 30.07" 0 0.00 152
Paducah 10SW  08:05 AM 74 63 71% S67 17 mph 181° @ 0140 AM 81 68 82 46 29.99" 0 0.00 139
Palo Duro Canyon State Park  08:05 AM 76 58 53% SW1825 31 mph 210° @ 0327 AM 82 74 54 33 30.06" 0 0.00 149
Pampa 2E  08:05 AM 76 57 54% SW1118 21 mph 171° @ 1255 AM 82 72 58 31 30.02" 0 0.00 170
Plains 3N  08:05 AM 72 60 67% SW811 23 mph 157° @ 1245 AM 79 69 70 34 30.09" 0 0.00 108
Plainview 1S  08:05 AM 69 60 73% W58 13 mph 172° @ 0145 AM 76 64 82 45 30.06" 0 0.00 155
Post 1NE  08:05 AM 78 60 55% SW913 17 mph 176° @ 0155 AM 84 76 56 35 30.04" 0 0.00 171
Ralls 1SE  08:05 AM 71 59 69% W68 18 mph 170° @ 0135 AM 78 66 78 40 30.07" 0 0.00 165
Reese Center  08:05 AM 74 59 62% SW1015 20 mph 175° @ 0100 AM 80 69 67 32 30.07" 0 0.00 166
Roaring Springs 3N  08:05 AM 76 62 63% SW1015 20 mph 178° @ 0130 AM 80 69 75 52 30.02" 0 0.00 139
San Angelo 7NW  08:05 AM 77 65 67% SE35 11 mph 165° @ 0250 AM 84 74 71 45 30.03" 0 0.00 158
Seagraves 1SW  08:05 AM 73 61 68% S710 19 mph 160° @ 1210 AM 82 66 76 35 30.07" 0 0.00 129
Seminole 2NNE  08:05 AM 75 61 63% S810 20 mph 185° @ 0315 AM 83 72 67 34 30.06" 0 0.00 153
Seymour 3NW  08:05 AM 80 64 60% S911 20 mph 167° @ 0105 AM 88 77 65 35 29.97" 0 0.00 181
Silverton 7ESE  08:05 AM 71 58 64% SW1114 21 mph 178° @ 0210 AM 78 66 72 40 30.04" 0 0.00 117
Slaton 2NE  08:05 AM 74 58 60% SW79 18 mph 172° @ 1250 AM 79 71 63 31 30.07" 0 0.00 170
Snyder 3E  08:05 AM 77 63 63% S1015 20 mph 148° @ 0110 AM 83 74 68 44 30.03" 0 0.00 132
Spur 1W  08:05 AM 74 60 63% SW35 10 mph 164° @ 1230 AM 81 67 76 44 30.01" 0 0.00 168
St. Lawrence 5SW  08:05 AM 73 63 72% S912 15 mph 170° @ 0550 AM 81 72 72 45 30.04" 0 0.00 159
Sterling City 4WSW  08:05 AM 76 65 68% SE68 19 mph 180° @ 0437 AM 83 74 69 44 30.05" 0 0.00 137
Sundown 8WSW  08:05 AM 70 59 71% SW810 22 mph 165° @ 1230 AM 80 65 76 33 30.08" 0 0.00 121
Sweetwater 11SW   08:05 AM 78 64 63% S1012 24 mph 142° @ 1203 AM 83 75 67 49 30.06" 0 0.00 167
Tahoka 3NNE  08:05 AM 72 57 64% NW11 15 mph 179° @ 1255 AM 79 65 75 38 30.06" 0 0.00 159
Tulia 2ENE  08:05 AM 73 59 63% SW1621 20 mph 240° @ 0735 AM 76 65 73 43 30.06" 0 0.00 157
Turkey 2WSW  08:05 AM 78 61 56% SW1014 20 mph 186° @ 0150 AM 82 71 68 40 29.99" 0 0.00 175
Umbarger 3NNE  08:05 AM 71 57 62% SW1214 21 mph 197° @ 0219 AM 78 67 70 38 30.07" 0 0.00 56
Wall 1E  08:05 AM 78 65 65% S1217 20 mph 168° @ 0215 AM 85 76 70 44 30.03" 0 0.00 128
Weinert 2NNE  08:06 AM 79 65 62% S79 17 mph 180° @ 0356 AM 84 76 67 47 29.99" 0 0.00 45
White River Lake 6NW  08:05 AM 77 60 58% SW913 16 mph 228° @ 0615 AM 80 73 61 37 30.04" 0 0.00 167
Wolfforth 6SSW  08:05 AM 72 58 64% SW69 21 mph 175° @ 0100 AM 80 68 69 34 30.08" 0 0.00 161

West Texas Mesonet Home   Site Map/Menu  NWS Lubbock Soil Data  Daily Summary Page  24hr Precip  72hr Precip  Google Plot